sensor_id;sensor_type;location;lat;lon;timestamp;P1;durP1;ratioP1;P2;durP2;ratioP2
8349;SDS011;60699;48.946;8.412;2024-01-10T00:02:07;11.45;;;8.02;;
8349;SDS011;60699;48.946;8.412;2024-01-10T00:04:34;15.13;;;9.48;;
8349;SDS011;60699;48.946;8.412;2024-01-10T00:07:01;12.10;;;8.52;;
8349;SDS011;60699;48.946;8.412;2024-01-10T00:09:29;11.60;;;8.05;;
8349;SDS011;60699;48.946;8.412;2024-01-10T00:11:56;15.55;;;8.93;;
8349;SDS011;60699;48.946;8.412;2024-01-10T00:14:23;11.20;;;7.93;;
8349;SDS011;60699;48.946;8.412;2024-01-10T00:16:50;12.30;;;7.60;;
8349;SDS011;60699;48.946;8.412;2024-01-10T00:19:19;12.90;;;8.98;;
8349;SDS011;60699;48.946;8.412;2024-01-10T00:21:46;9.55;;;8.32;;
8349;SDS011;60699;48.946;8.412;2024-01-10T00:24:13;8.70;;;7.32;;
8349;SDS011;60699;48.946;8.412;2024-01-10T00:26:40;9.23;;;7.20;;
8349;SDS011;60699;48.946;8.412;2024-01-10T00:29:07;16.77;;;8.52;;
8349;SDS011;60699;48.946;8.412;2024-01-10T00:31:34;11.07;;;7.50;;
8349;SDS011;60699;48.946;8.412;2024-01-10T00:34:01;10.30;;;7.70;;
8349;SDS011;60699;48.946;8.412;2024-01-10T00:36:29;8.40;;;7.60;;
8349;SDS011;60699;48.946;8.412;2024-01-10T00:38:56;14.60;;;7.93;;
8349;SDS011;60699;48.946;8.412;2024-01-10T00:41:23;9.07;;;6.60;;
8349;SDS011;60699;48.946;8.412;2024-01-10T00:43:50;13.48;;;8.32;;
8349;SDS011;60699;48.946;8.412;2024-01-10T00:46:18;14.63;;;8.23;;
8349;SDS011;60699;48.946;8.412;2024-01-10T00:48:45;8.20;;;7.25;;
8349;SDS011;60699;48.946;8.412;2024-01-10T00:51:12;12.57;;;8.63;;
8349;SDS011;60699;48.946;8.412;2024-01-10T00:53:41;9.05;;;7.85;;
8349;SDS011;60699;48.946;8.412;2024-01-10T00:56:08;11.68;;;7.70;;
8349;SDS011;60699;48.946;8.412;2024-01-10T00:58:36;13.93;;;7.95;;
8349;SDS011;60699;48.946;8.412;2024-01-10T01:01:03;9.80;;;7.55;;
8349;SDS011;60699;48.946;8.412;2024-01-10T01:03:30;17.00;;;8.38;;
8349;SDS011;60699;48.946;8.412;2024-01-10T01:05:57;12.43;;;8.20;;
8349;SDS011;60699;48.946;8.412;2024-01-10T01:08:24;12.20;;;8.55;;
8349;SDS011;60699;48.946;8.412;2024-01-10T01:10:53;13.95;;;8.50;;
8349;SDS011;60699;48.946;8.412;2024-01-10T01:13:20;12.10;;;8.20;;
8349;SDS011;60699;48.946;8.412;2024-01-10T01:15:47;14.73;;;8.30;;
8349;SDS011;60699;48.946;8.412;2024-01-10T01:18:14;12.98;;;8.45;;
8349;SDS011;60699;48.946;8.412;2024-01-10T01:20:41;10.82;;;7.85;;
8349;SDS011;60699;48.946;8.412;2024-01-10T01:23:08;9.45;;;7.90;;
8349;SDS011;60699;48.946;8.412;2024-01-10T01:25:35;10.15;;;7.70;;
8349;SDS011;60699;48.946;8.412;2024-01-10T01:28:03;11.88;;;8.13;;
8349;SDS011;60699;48.946;8.412;2024-01-10T01:30:30;10.13;;;8.07;;
8349;SDS011;60699;48.946;8.412;2024-01-10T01:32:57;9.13;;;7.38;;
8349;SDS011;60699;48.946;8.412;2024-01-10T01:35:25;12.88;;;8.43;;
8349;SDS011;60699;48.946;8.412;2024-01-10T01:37:52;11.65;;;7.82;;
8349;SDS011;60699;48.946;8.412;2024-01-10T01:40:18;16.85;;;8.57;;
8349;SDS011;60699;48.946;8.412;2024-01-10T01:42:46;10.15;;;7.68;;
8349;SDS011;60699;48.946;8.412;2024-01-10T01:45:14;12.48;;;7.07;;
8349;SDS011;60699;48.946;8.412;2024-01-10T01:47:41;11.18;;;6.88;;
8349;SDS011;60699;48.946;8.412;2024-01-10T01:50:07;14.43;;;6.63;;
8349;SDS011;60699;48.946;8.412;2024-01-10T01:52:35;10.02;;;7.55;;
8349;SDS011;60699;48.946;8.412;2024-01-10T01:55:03;13.88;;;7.45;;
8349;SDS011;60699;48.946;8.412;2024-01-10T01:57:31;10.07;;;7.00;;
8349;SDS011;60699;48.946;8.412;2024-01-10T01:59:58;10.70;;;7.50;;
8349;SDS011;60699;48.946;8.412;2024-01-10T02:02:27;10.25;;;7.78;;
8349;SDS011;60699;48.946;8.412;2024-01-10T02:04:55;12.07;;;7.53;;
8349;SDS011;60699;48.946;8.412;2024-01-10T02:07:22;7.93;;;6.05;;
8349;SDS011;60699;48.946;8.412;2024-01-10T02:09:49;9.43;;;6.53;;
8349;SDS011;60699;48.946;8.412;2024-01-10T02:12:16;9.43;;;6.95;;
8349;SDS011;60699;48.946;8.412;2024-01-10T02:14:44;13.52;;;7.43;;
8349;SDS011;60699;48.946;8.412;2024-01-10T02:17:11;8.38;;;6.88;;
8349;SDS011;60699;48.946;8.412;2024-01-10T02:19:39;7.75;;;6.20;;
8349;SDS011;60699;48.946;8.412;2024-01-10T02:22:06;9.00;;;6.47;;
8349;SDS011;60699;48.946;8.412;2024-01-10T02:24:36;11.38;;;6.93;;
8349;SDS011;60699;48.946;8.412;2024-01-10T02:27:04;8.43;;;7.05;;
8349;SDS011;60699;48.946;8.412;2024-01-10T02:29:32;12.20;;;6.25;;
8349;SDS011;60699;48.946;8.412;2024-01-10T02:32:00;11.85;;;6.30;;
8349;SDS011;60699;48.946;8.412;2024-01-10T02:34:28;9.30;;;6.72;;
8349;SDS011;60699;48.946;8.412;2024-01-10T02:36:56;11.65;;;7.85;;
8349;SDS011;60699;48.946;8.412;2024-01-10T02:39:23;10.35;;;6.55;;
8349;SDS011;60699;48.946;8.412;2024-01-10T02:41:50;8.93;;;6.07;;
8349;SDS011;60699;48.946;8.412;2024-01-10T02:44:18;10.52;;;6.47;;
8349;SDS011;60699;48.946;8.412;2024-01-10T02:46:48;11.95;;;7.28;;
8349;SDS011;60699;48.946;8.412;2024-01-10T02:49:15;9.35;;;7.28;;
8349;SDS011;60699;48.946;8.412;2024-01-10T02:51:43;7.68;;;5.65;;
8349;SDS011;60699;48.946;8.412;2024-01-10T02:54:10;14.23;;;7.20;;
8349;SDS011;60699;48.946;8.412;2024-01-10T02:56:37;11.25;;;8.48;;
8349;SDS011;60699;48.946;8.412;2024-01-10T02:59:04;12.80;;;7.55;;
8349;SDS011;60699;48.946;8.412;2024-01-10T03:01:33;10.18;;;6.55;;
8349;SDS011;60699;48.946;8.412;2024-01-10T03:04:00;10.40;;;7.22;;
8349;SDS011;60699;48.946;8.412;2024-01-10T03:06:27;9.00;;;7.03;;
8349;SDS011;60699;48.946;8.412;2024-01-10T03:08:54;13.52;;;7.07;;
8349;SDS011;60699;48.946;8.412;2024-01-10T03:11:21;8.85;;;6.10;;
8349;SDS011;60699;48.946;8.412;2024-01-10T03:13:50;11.50;;;7.05;;
8349;SDS011;60699;48.946;8.412;2024-01-10T03:16:17;12.98;;;7.28;;
8349;SDS011;60699;48.946;8.412;2024-01-10T03:18:46;11.25;;;6.85;;
8349;SDS011;60699;48.946;8.412;2024-01-10T03:21:13;8.77;;;6.65;;
8349;SDS011;60699;48.946;8.412;2024-01-10T03:23:40;11.05;;;5.97;;
8349;SDS011;60699;48.946;8.412;2024-01-10T03:26:09;10.38;;;7.90;;
8349;SDS011;60699;48.946;8.412;2024-01-10T03:28:36;11.52;;;7.25;;
8349;SDS011;60699;48.946;8.412;2024-01-10T03:31:03;11.38;;;8.07;;
8349;SDS011;60699;48.946;8.412;2024-01-10T03:33:30;13.60;;;6.95;;
8349;SDS011;60699;48.946;8.412;2024-01-10T03:35:59;13.73;;;6.85;;
8349;SDS011;60699;48.946;8.412;2024-01-10T03:38:26;15.50;;;7.85;;
8349;SDS011;60699;48.946;8.412;2024-01-10T03:40:53;12.52;;;5.50;;
8349;SDS011;60699;48.946;8.412;2024-01-10T03:43:20;10.30;;;7.10;;
8349;SDS011;60699;48.946;8.412;2024-01-10T03:45:47;11.88;;;7.40;;
8349;SDS011;60699;48.946;8.412;2024-01-10T03:48:14;8.85;;;6.40;;
8349;SDS011;60699;48.946;8.412;2024-01-10T03:50:41;17.08;;;8.02;;
8349;SDS011;60699;48.946;8.412;2024-01-10T03:53:09;19.88;;;8.25;;
8349;SDS011;60699;48.946;8.412;2024-01-10T03:55:36;16.95;;;7.25;;
8349;SDS011;60699;48.946;8.412;2024-01-10T03:58:04;12.65;;;7.45;;
8349;SDS011;60699;48.946;8.412;2024-01-10T04:00:31;11.48;;;7.78;;
8349;SDS011;60699;48.946;8.412;2024-01-10T04:02:58;9.02;;;6.95;;
8349;SDS011;60699;48.946;8.412;2024-01-10T04:05:25;8.98;;;6.47;;
8349;SDS011;60699;48.946;8.412;2024-01-10T04:07:52;14.18;;;7.82;;
8349;SDS011;60699;48.946;8.412;2024-01-10T04:10:23;13.45;;;7.35;;
8349;SDS011;60699;48.946;8.412;2024-01-10T04:12:50;10.82;;;7.00;;
8349;SDS011;60699;48.946;8.412;2024-01-10T04:15:17;13.45;;;8.07;;
8349;SDS011;60699;48.946;8.412;2024-01-10T04:17:44;10.63;;;7.97;;
8349;SDS011;60699;48.946;8.412;2024-01-10T04:20:11;15.60;;;7.60;;
8349;SDS011;60699;48.946;8.412;2024-01-10T04:22:38;10.82;;;7.20;;
8349;SDS011;60699;48.946;8.412;2024-01-10T04:25:06;13.90;;;8.63;;
8349;SDS011;60699;48.946;8.412;2024-01-10T04:27:34;12.48;;;8.18;;
8349;SDS011;60699;48.946;8.412;2024-01-10T04:30:01;9.93;;;7.32;;
8349;SDS011;60699;48.946;8.412;2024-01-10T04:32:28;10.38;;;7.10;;
8349;SDS011;60699;48.946;8.412;2024-01-10T04:34:55;14.13;;;8.63;;
8349;SDS011;60699;48.946;8.412;2024-01-10T04:37:22;10.23;;;7.20;;
8349;SDS011;60699;48.946;8.412;2024-01-10T04:39:51;10.73;;;7.78;;
8349;SDS011;60699;48.946;8.412;2024-01-10T04:42:18;14.77;;;7.03;;
8349;SDS011;60699;48.946;8.412;2024-01-10T04:44:46;14.52;;;9.43;;
8349;SDS011;60699;48.946;8.412;2024-01-10T04:47:14;17.75;;;8.05;;
8349;SDS011;60699;48.946;8.412;2024-01-10T04:49:41;15.55;;;7.75;;
8349;SDS011;60699;48.946;8.412;2024-01-10T04:52:09;10.88;;;7.82;;
8349;SDS011;60699;48.946;8.412;2024-01-10T04:54:36;9.70;;;7.35;;
8349;SDS011;60699;48.946;8.412;2024-01-10T04:57:03;10.80;;;7.97;;
8349;SDS011;60699;48.946;8.412;2024-01-10T04:59:30;13.32;;;9.00;;
8349;SDS011;60699;48.946;8.412;2024-01-10T05:01:58;14.05;;;8.20;;
8349;SDS011;60699;48.946;8.412;2024-01-10T05:04:25;15.10;;;8.60;;
8349;SDS011;60699;48.946;8.412;2024-01-10T05:06:53;11.40;;;8.75;;
8349;SDS011;60699;48.946;8.412;2024-01-10T05:09:20;19.00;;;8.18;;
8349;SDS011;60699;48.946;8.412;2024-01-10T05:11:47;14.90;;;8.38;;
8349;SDS011;60699;48.946;8.412;2024-01-10T05:14:16;12.77;;;7.30;;
8349;SDS011;60699;48.946;8.412;2024-01-10T05:16:44;8.05;;;7.22;;
8349;SDS011;60699;48.946;8.412;2024-01-10T05:19:13;13.32;;;7.97;;
8349;SDS011;60699;48.946;8.412;2024-01-10T05:21:40;10.80;;;8.32;;
8349;SDS011;60699;48.946;8.412;2024-01-10T05:24:08;17.30;;;8.10;;
8349;SDS011;60699;48.946;8.412;2024-01-10T05:26:35;15.45;;;8.05;;
8349;SDS011;60699;48.946;8.412;2024-01-10T05:29:02;21.58;;;9.80;;
8349;SDS011;60699;48.946;8.412;2024-01-10T05:31:29;11.93;;;7.22;;
8349;SDS011;60699;48.946;8.412;2024-01-10T05:33:56;9.38;;;6.85;;
8349;SDS011;60699;48.946;8.412;2024-01-10T05:36:24;13.48;;;8.05;;
8349;SDS011;60699;48.946;8.412;2024-01-10T05:38:51;11.70;;;7.90;;
8349;SDS011;60699;48.946;8.412;2024-01-10T05:41:18;13.20;;;8.75;;
8349;SDS011;60699;48.946;8.412;2024-01-10T05:43:45;15.52;;;8.45;;
8349;SDS011;60699;48.946;8.412;2024-01-10T05:46:12;13.95;;;8.73;;
8349;SDS011;60699;48.946;8.412;2024-01-10T05:48:41;9.95;;;8.15;;
8349;SDS011;60699;48.946;8.412;2024-01-10T05:51:08;16.35;;;8.88;;
8349;SDS011;60699;48.946;8.412;2024-01-10T05:53:36;14.73;;;9.38;;
8349;SDS011;60699;48.946;8.412;2024-01-10T05:56:05;10.80;;;7.32;;
8349;SDS011;60699;48.946;8.412;2024-01-10T05:58:32;17.65;;;10.43;;
8349;SDS011;60699;48.946;8.412;2024-01-10T06:00:59;13.30;;;7.80;;
8349;SDS011;60699;48.946;8.412;2024-01-10T06:03:26;9.80;;;7.07;;
8349;SDS011;60699;48.946;8.412;2024-01-10T06:05:53;10.82;;;7.88;;
8349;SDS011;60699;48.946;8.412;2024-01-10T06:08:20;18.63;;;7.70;;
8349;SDS011;60699;48.946;8.412;2024-01-10T06:10:51;12.45;;;8.65;;
8349;SDS011;60699;48.946;8.412;2024-01-10T06:13:18;15.70;;;8.30;;
8349;SDS011;60699;48.946;8.412;2024-01-10T06:15:45;10.55;;;6.88;;
8349;SDS011;60699;48.946;8.412;2024-01-10T06:18:12;11.88;;;7.90;;
8349;SDS011;60699;48.946;8.412;2024-01-10T06:20:39;17.23;;;7.30;;
8349;SDS011;60699;48.946;8.412;2024-01-10T06:23:06;16.63;;;7.60;;
8349;SDS011;60699;48.946;8.412;2024-01-10T06:25:34;14.52;;;8.25;;
8349;SDS011;60699;48.946;8.412;2024-01-10T06:28:02;16.80;;;9.00;;
8349;SDS011;60699;48.946;8.412;2024-01-10T06:30:29;11.80;;;7.80;;
8349;SDS011;60699;48.946;8.412;2024-01-10T06:32:56;17.33;;;9.25;;
8349;SDS011;60699;48.946;8.412;2024-01-10T06:35:24;10.15;;;7.38;;
8349;SDS011;60699;48.946;8.412;2024-01-10T06:37:51;15.07;;;9.45;;
8349;SDS011;60699;48.946;8.412;2024-01-10T06:40:18;14.15;;;7.90;;
8349;SDS011;60699;48.946;8.412;2024-01-10T06:42:46;12.10;;;7.78;;
8349;SDS011;60699;48.946;8.412;2024-01-10T06:45:15;15.10;;;8.10;;
8349;SDS011;60699;48.946;8.412;2024-01-10T06:47:42;15.45;;;8.57;;
8349;SDS011;60699;48.946;8.412;2024-01-10T06:50:09;14.18;;;8.43;;
8349;SDS011;60699;48.946;8.412;2024-01-10T06:52:36;12.90;;;7.28;;
8349;SDS011;60699;48.946;8.412;2024-01-10T06:55:03;12.57;;;8.82;;
8349;SDS011;60699;48.946;8.412;2024-01-10T06:57:31;10.00;;;7.40;;
8349;SDS011;60699;48.946;8.412;2024-01-10T06:59:58;11.52;;;8.88;;
8349;SDS011;60699;48.946;8.412;2024-01-10T07:02:27;16.00;;;8.80;;
8349;SDS011;60699;48.946;8.412;2024-01-10T07:04:55;18.17;;;8.35;;
8349;SDS011;60699;48.946;8.412;2024-01-10T07:07:22;12.20;;;9.80;;
8349;SDS011;60699;48.946;8.412;2024-01-10T07:09:49;16.23;;;10.20;;
8349;SDS011;60699;48.946;8.412;2024-01-10T07:12:16;17.27;;;10.05;;
8349;SDS011;60699;48.946;8.412;2024-01-10T07:14:43;12.27;;;8.15;;
8349;SDS011;60699;48.946;8.412;2024-01-10T07:17:10;16.13;;;9.60;;
8349;SDS011;60699;48.946;8.412;2024-01-10T07:19:38;12.07;;;7.43;;
8349;SDS011;60699;48.946;8.412;2024-01-10T07:22:05;9.02;;;7.28;;
8349;SDS011;60699;48.946;8.412;2024-01-10T07:24:33;14.45;;;7.22;;
8349;SDS011;60699;48.946;8.412;2024-01-10T07:27:00;14.20;;;8.77;;
8349;SDS011;60699;48.946;8.412;2024-01-10T07:29:27;15.60;;;8.85;;
8349;SDS011;60699;48.946;8.412;2024-01-10T07:31:56;13.82;;;8.30;;
8349;SDS011;60699;48.946;8.412;2024-01-10T07:34:23;15.15;;;8.50;;
8349;SDS011;60699;48.946;8.412;2024-01-10T07:36:51;18.08;;;9.82;;
8349;SDS011;60699;48.946;8.412;2024-01-10T07:39:19;13.65;;;10.30;;
8349;SDS011;60699;48.946;8.412;2024-01-10T07:41:46;12.75;;;8.75;;
8349;SDS011;60699;48.946;8.412;2024-01-10T07:44:15;13.50;;;8.85;;
8349;SDS011;60699;48.946;8.412;2024-01-10T07:46:42;12.93;;;8.98;;
8349;SDS011;60699;48.946;8.412;2024-01-10T07:49:08;15.23;;;8.65;;
8349;SDS011;60699;48.946;8.412;2024-01-10T07:51:35;16.83;;;8.57;;
8349;SDS011;60699;48.946;8.412;2024-01-10T07:54:04;12.90;;;9.60;;
8349;SDS011;60699;48.946;8.412;2024-01-10T07:56:31;13.63;;;6.90;;
8349;SDS011;60699;48.946;8.412;2024-01-10T07:58:58;18.23;;;9.68;;
8349;SDS011;60699;48.946;8.412;2024-01-10T08:01:25;15.10;;;8.45;;
8349;SDS011;60699;48.946;8.412;2024-01-10T08:03:52;13.82;;;8.20;;
8349;SDS011;60699;48.946;8.412;2024-01-10T08:06:19;19.52;;;9.45;;
8349;SDS011;60699;48.946;8.412;2024-01-10T08:08:46;12.65;;;9.50;;
8349;SDS011;60699;48.946;8.412;2024-01-10T08:11:14;13.45;;;8.57;;
8349;SDS011;60699;48.946;8.412;2024-01-10T08:13:41;16.23;;;10.38;;
8349;SDS011;60699;48.946;8.412;2024-01-10T08:16:08;13.60;;;8.25;;
8349;SDS011;60699;48.946;8.412;2024-01-10T08:18:35;16.52;;;9.93;;
8349;SDS011;60699;48.946;8.412;2024-01-10T08:21:02;8.95;;;8.02;;
8349;SDS011;60699;48.946;8.412;2024-01-10T08:23:30;11.93;;;8.88;;
8349;SDS011;60699;48.946;8.412;2024-01-10T08:25:57;16.38;;;10.98;;
8349;SDS011;60699;48.946;8.412;2024-01-10T08:28:25;14.27;;;9.95;;
8349;SDS011;60699;48.946;8.412;2024-01-10T08:30:52;15.55;;;9.93;;
8349;SDS011;60699;48.946;8.412;2024-01-10T08:33:19;14.88;;;9.82;;
8349;SDS011;60699;48.946;8.412;2024-01-10T08:35:46;14.02;;;9.50;;
8349;SDS011;60699;48.946;8.412;2024-01-10T08:38:13;14.13;;;9.45;;
8349;SDS011;60699;48.946;8.412;2024-01-10T08:40:40;15.13;;;10.20;;
8349;SDS011;60699;48.946;8.412;2024-01-10T08:43:07;14.25;;;8.98;;
8349;SDS011;60699;48.946;8.412;2024-01-10T08:45:36;15.77;;;9.40;;
8349;SDS011;60699;48.946;8.412;2024-01-10T08:48:03;19.08;;;9.57;;
8349;SDS011;60699;48.946;8.412;2024-01-10T08:50:31;11.75;;;8.77;;
8349;SDS011;60699;48.946;8.412;2024-01-10T08:52:59;18.05;;;10.07;;
8349;SDS011;60699;48.946;8.412;2024-01-10T08:55:28;18.00;;;9.27;;
8349;SDS011;60699;48.946;8.412;2024-01-10T08:57:56;18.90;;;11.65;;
8349;SDS011;60699;48.946;8.412;2024-01-10T09:00:23;19.25;;;9.13;;
8349;SDS011;60699;48.946;8.412;2024-01-10T09:02:51;15.25;;;10.20;;
8349;SDS011;60699;48.946;8.412;2024-01-10T09:05:19;13.90;;;9.85;;
8349;SDS011;60699;48.946;8.412;2024-01-10T09:07:46;19.75;;;9.45;;
8349;SDS011;60699;48.946;8.412;2024-01-10T09:10:13;19.63;;;8.93;;
8349;SDS011;60699;48.946;8.412;2024-01-10T09:12:40;17.35;;;10.50;;
8349;SDS011;60699;48.946;8.412;2024-01-10T09:15:11;19.90;;;10.40;;
8349;SDS011;60699;48.946;8.412;2024-01-10T09:17:39;18.40;;;11.40;;
8349;SDS011;60699;48.946;8.412;2024-01-10T09:20:08;15.52;;;10.05;;
8349;SDS011;60699;48.946;8.412;2024-01-10T09:22:35;13.68;;;10.10;;
8349;SDS011;60699;48.946;8.412;2024-01-10T09:25:03;15.55;;;8.48;;
8349;SDS011;60699;48.946;8.412;2024-01-10T09:27:30;21.50;;;11.15;;
8349;SDS011;60699;48.946;8.412;2024-01-10T09:29:58;19.30;;;9.23;;
8349;SDS011;60699;48.946;8.412;2024-01-10T09:32:26;16.42;;;10.13;;
8349;SDS011;60699;48.946;8.412;2024-01-10T09:34:54;17.17;;;10.65;;
8349;SDS011;60699;48.946;8.412;2024-01-10T09:37:22;17.70;;;11.00;;
8349;SDS011;60699;48.946;8.412;2024-01-10T09:39:49;20.65;;;12.48;;
8349;SDS011;60699;48.946;8.412;2024-01-10T09:42:17;17.33;;;9.63;;
8349;SDS011;60699;48.946;8.412;2024-01-10T09:44:45;18.33;;;10.18;;
8349;SDS011;60699;48.946;8.412;2024-01-10T09:47:13;16.27;;;8.60;;
8349;SDS011;60699;48.946;8.412;2024-01-10T09:49:41;18.80;;;11.35;;
8349;SDS011;60699;48.946;8.412;2024-01-10T09:52:10;20.05;;;10.40;;
8349;SDS011;60699;48.946;8.412;2024-01-10T09:54:38;18.10;;;9.95;;
8349;SDS011;60699;48.946;8.412;2024-01-10T09:57:08;18.13;;;11.27;;
8349;SDS011;60699;48.946;8.412;2024-01-10T09:59:35;22.85;;;12.07;;
8349;SDS011;60699;48.946;8.412;2024-01-10T10:02:02;20.40;;;12.55;;
8349;SDS011;60699;48.946;8.412;2024-01-10T10:04:30;14.80;;;9.70;;
8349;SDS011;60699;48.946;8.412;2024-01-10T10:07:00;15.50;;;10.60;;
8349;SDS011;60699;48.946;8.412;2024-01-10T10:09:27;14.77;;;10.05;;
8349;SDS011;60699;48.946;8.412;2024-01-10T10:11:56;20.77;;;11.68;;
8349;SDS011;60699;48.946;8.412;2024-01-10T10:14:24;16.75;;;10.75;;
8349;SDS011;60699;48.946;8.412;2024-01-10T10:16:53;16.23;;;9.70;;
8349;SDS011;60699;48.946;8.412;2024-01-10T10:47:39;15.55;;;11.27;;
8349;SDS011;60699;48.946;8.412;2024-01-10T10:50:10;20.63;;;12.88;;
8349;SDS011;60699;48.946;8.412;2024-01-10T10:52:39;15.82;;;11.02;;
8349;SDS011;60699;48.946;8.412;2024-01-10T10:55:09;20.92;;;12.93;;
8349;SDS011;60699;48.946;8.412;2024-01-10T10:57:36;22.88;;;13.40;;
8349;SDS011;60699;48.946;8.412;2024-01-10T11:00:04;16.88;;;11.30;;
8349;SDS011;60699;48.946;8.412;2024-01-10T11:02:32;21.88;;;12.95;;
8349;SDS011;60699;48.946;8.412;2024-01-10T11:05:01;15.15;;;9.70;;
8349;SDS011;60699;48.946;8.412;2024-01-10T11:07:29;27.80;;;11.38;;
8349;SDS011;60699;48.946;8.412;2024-01-10T11:09:56;19.02;;;11.70;;
8349;SDS011;60699;48.946;8.412;2024-01-10T11:12:27;18.70;;;10.85;;
8349;SDS011;60699;48.946;8.412;2024-01-10T11:15:03;22.77;;;12.48;;
8349;SDS011;60699;48.946;8.412;2024-01-10T11:17:39;18.77;;;12.52;;
8349;SDS011;60699;48.946;8.412;2024-01-10T11:20:14;18.73;;;10.70;;
8349;SDS011;60699;48.946;8.412;2024-01-10T11:22:52;19.63;;;11.23;;
8349;SDS011;60699;48.946;8.412;2024-01-10T11:25:22;22.52;;;12.50;;
8349;SDS011;60699;48.946;8.412;2024-01-10T11:27:51;19.15;;;12.57;;
8349;SDS011;60699;48.946;8.412;2024-01-10T11:30:29;17.25;;;13.27;;
8349;SDS011;60699;48.946;8.412;2024-01-10T11:32:56;16.63;;;12.00;;
8349;SDS011;60699;48.946;8.412;2024-01-10T11:35:25;19.55;;;13.77;;
8349;SDS011;60699;48.946;8.412;2024-01-10T11:37:57;22.98;;;13.57;;
8349;SDS011;60699;48.946;8.412;2024-01-10T11:43:11;21.60;;;11.90;;
8349;SDS011;60699;48.946;8.412;2024-01-10T11:45:42;18.98;;;13.27;;
8349;SDS011;60699;48.946;8.412;2024-01-10T11:48:17;18.20;;;11.35;;
8349;SDS011;60699;48.946;8.412;2024-01-10T11:50:45;15.30;;;12.73;;
8349;SDS011;60699;48.946;8.412;2024-01-10T11:53:12;13.57;;;10.73;;
8349;SDS011;60699;48.946;8.412;2024-01-10T11:55:50;18.23;;;12.20;;
8349;SDS011;60699;48.946;8.412;2024-01-10T11:58:17;22.35;;;12.95;;
8349;SDS011;60699;48.946;8.412;2024-01-10T12:00:45;21.55;;;11.63;;
8349;SDS011;60699;48.946;8.412;2024-01-10T12:03:13;20.63;;;12.73;;
8349;SDS011;60699;48.946;8.412;2024-01-10T12:05:41;25.33;;;14.55;;
8349;SDS011;60699;48.946;8.412;2024-01-10T12:08:11;23.35;;;12.90;;
8349;SDS011;60699;48.946;8.412;2024-01-10T12:10:38;17.63;;;11.20;;
8349;SDS011;60699;48.946;8.412;2024-01-10T12:13:05;25.88;;;12.98;;
8349;SDS011;60699;48.946;8.412;2024-01-10T12:15:32;19.45;;;13.85;;
8349;SDS011;60699;48.946;8.412;2024-01-10T12:17:59;26.63;;;12.90;;
8349;SDS011;60699;48.946;8.412;2024-01-10T12:20:27;18.92;;;12.23;;
8349;SDS011;60699;48.946;8.412;2024-01-10T12:22:54;25.65;;;11.45;;
8349;SDS011;60699;48.946;8.412;2024-01-10T12:25:23;20.55;;;13.13;;
8349;SDS011;60699;48.946;8.412;2024-01-10T12:31:11;25.23;;;12.25;;
8349;SDS011;60699;48.946;8.412;2024-01-10T12:40:11;18.27;;;11.73;;
8349;SDS011;60699;48.946;8.412;2024-01-10T12:55:35;22.88;;;13.23;;
8349;SDS011;60699;48.946;8.412;2024-01-10T12:58:03;17.13;;;12.15;;
8349;SDS011;60699;48.946;8.412;2024-01-10T13:00:30;21.85;;;14.20;;
8349;SDS011;60699;48.946;8.412;2024-01-10T13:02:58;23.63;;;12.02;;
8349;SDS011;60699;48.946;8.412;2024-01-10T13:05:25;22.42;;;12.80;;
8349;SDS011;60699;48.946;8.412;2024-01-10T13:07:52;22.65;;;13.32;;
8349;SDS011;60699;48.946;8.412;2024-01-10T13:10:20;19.10;;;13.13;;
8349;SDS011;60699;48.946;8.412;2024-01-10T13:12:48;21.73;;;13.00;;
8349;SDS011;60699;48.946;8.412;2024-01-10T13:15:15;20.52;;;12.90;;
8349;SDS011;60699;48.946;8.412;2024-01-10T13:17:43;18.75;;;11.43;;
8349;SDS011;60699;48.946;8.412;2024-01-10T13:20:14;18.13;;;12.23;;
8349;SDS011;60699;48.946;8.412;2024-01-10T13:22:43;24.35;;;15.18;;
8349;SDS011;60699;48.946;8.412;2024-01-10T13:25:12;32.33;;;14.77;;
8349;SDS011;60699;48.946;8.412;2024-01-10T13:27:40;19.33;;;13.13;;
8349;SDS011;60699;48.946;8.412;2024-01-10T13:30:09;17.45;;;13.48;;
8349;SDS011;60699;48.946;8.412;2024-01-10T13:32:37;23.42;;;14.23;;
8349;SDS011;60699;48.946;8.412;2024-01-10T13:35:04;17.92;;;12.57;;
8349;SDS011;60699;48.946;8.412;2024-01-10T13:37:31;29.63;;;15.43;;
8349;SDS011;60699;48.946;8.412;2024-01-10T13:39:59;24.40;;;14.18;;
8349;SDS011;60699;48.946;8.412;2024-01-10T13:42:26;25.20;;;13.80;;
8349;SDS011;60699;48.946;8.412;2024-01-10T13:44:53;26.08;;;14.27;;
8349;SDS011;60699;48.946;8.412;2024-01-10T13:47:21;18.05;;;12.68;;
8349;SDS011;60699;48.946;8.412;2024-01-10T13:49:48;18.88;;;12.90;;
8349;SDS011;60699;48.946;8.412;2024-01-10T13:52:15;20.70;;;13.77;;
8349;SDS011;60699;48.946;8.412;2024-01-10T13:54:43;27.70;;;14.85;;
8349;SDS011;60699;48.946;8.412;2024-01-10T13:57:10;19.63;;;13.98;;
8349;SDS011;60699;48.946;8.412;2024-01-10T13:59:37;18.42;;;12.68;;
8349;SDS011;60699;48.946;8.412;2024-01-10T14:02:04;20.55;;;12.40;;
8349;SDS011;60699;48.946;8.412;2024-01-10T14:04:32;20.48;;;13.25;;
8349;SDS011;60699;48.946;8.412;2024-01-10T14:06:59;23.02;;;13.15;;
8349;SDS011;60699;48.946;8.412;2024-01-10T14:09:28;20.45;;;12.85;;
8349;SDS011;60699;48.946;8.412;2024-01-10T14:11:56;20.52;;;13.65;;
8349;SDS011;60699;48.946;8.412;2024-01-10T14:14:23;28.70;;;13.45;;
8349;SDS011;60699;48.946;8.412;2024-01-10T14:16:50;25.95;;;13.95;;
8349;SDS011;60699;48.946;8.412;2024-01-10T14:19:17;22.75;;;14.82;;
8349;SDS011;60699;48.946;8.412;2024-01-10T14:21:45;30.15;;;15.82;;
8349;SDS011;60699;48.946;8.412;2024-01-10T14:24:12;23.52;;;13.85;;
8349;SDS011;60699;48.946;8.412;2024-01-10T14:26:39;29.70;;;14.07;;
8349;SDS011;60699;48.946;8.412;2024-01-10T14:29:06;22.65;;;13.13;;
8349;SDS011;60699;48.946;8.412;2024-01-10T14:37:53;19.48;;;12.52;;
8349;SDS011;60699;48.946;8.412;2024-01-10T14:49:49;24.65;;;13.38;;
8349;SDS011;60699;48.946;8.412;2024-01-10T14:52:16;23.70;;;15.95;;
8349;SDS011;60699;48.946;8.412;2024-01-10T14:54:44;25.38;;;16.15;;
8349;SDS011;60699;48.946;8.412;2024-01-10T14:57:11;26.20;;;13.15;;
8349;SDS011;60699;48.946;8.412;2024-01-10T14:59:41;23.65;;;15.82;;
8349;SDS011;60699;48.946;8.412;2024-01-10T15:02:09;19.33;;;13.45;;
8349;SDS011;60699;48.946;8.412;2024-01-10T15:04:39;27.70;;;14.35;;
8349;SDS011;60699;48.946;8.412;2024-01-10T15:07:06;19.83;;;13.55;;
8349;SDS011;60699;48.946;8.412;2024-01-10T15:09:34;21.60;;;12.45;;
8349;SDS011;60699;48.946;8.412;2024-01-10T15:12:04;22.30;;;15.82;;
8349;SDS011;60699;48.946;8.412;2024-01-10T15:14:33;28.90;;;16.33;;
8349;SDS011;60699;48.946;8.412;2024-01-10T15:17:00;21.67;;;12.55;;
8349;SDS011;60699;48.946;8.412;2024-01-10T15:19:29;23.55;;;13.18;;
8349;SDS011;60699;48.946;8.412;2024-01-10T15:21:56;29.45;;;13.98;;
8349;SDS011;60699;48.946;8.412;2024-01-10T15:24:24;19.05;;;13.13;;
8349;SDS011;60699;48.946;8.412;2024-01-10T15:26:51;21.40;;;13.27;;
8349;SDS011;60699;48.946;8.412;2024-01-10T15:29:19;22.75;;;13.85;;
8349;SDS011;60699;48.946;8.412;2024-01-10T15:31:46;20.35;;;13.93;;
8349;SDS011;60699;48.946;8.412;2024-01-10T15:34:13;31.52;;;16.02;;
8349;SDS011;60699;48.946;8.412;2024-01-10T15:36:41;25.75;;;14.98;;
8349;SDS011;60699;48.946;8.412;2024-01-10T15:39:08;17.42;;;12.80;;
8349;SDS011;60699;48.946;8.412;2024-01-10T15:41:37;24.50;;;13.85;;
8349;SDS011;60699;48.946;8.412;2024-01-10T15:44:04;21.95;;;13.88;;
8349;SDS011;60699;48.946;8.412;2024-01-10T15:46:35;19.92;;;14.07;;
8349;SDS011;60699;48.946;8.412;2024-01-10T15:49:03;20.40;;;13.70;;
8349;SDS011;60699;48.946;8.412;2024-01-10T15:51:30;18.30;;;11.95;;
8349;SDS011;60699;48.946;8.412;2024-01-10T15:53:57;26.98;;;15.80;;
8349;SDS011;60699;48.946;8.412;2024-01-10T15:56:25;24.00;;;14.45;;